Time,TemperatureF,DewpointF,PressureIn,WindDirection,WindDirectionDegrees,WindSpeedMPH,WindSpeedGustMPH,Humidity,HourlyPrecipIn,Conditions,Clouds,dailyrainin,SolarRadiationWatts/m^2,SoftwareType,DateUTC
2013-08-31 00:05:00,58.3,55.7,30.10,SSW,204,0.0,0.0,91,0.00,,,0.00,0,Wunderground v.1.15,2013-08-31 07:05:00,
2013-08-31 00:10:00,58.2,55.6,30.10,SSW,204,0.0,0.0,91,0.00,,,0.00,0,Wunderground v.1.15,2013-08-31 07:10:00,
2013-08-31 00:20:00,58.1,55.8,30.10,SSW,204,0.0,0.0,92,0.00,,,0.00,0,Wunderground v.1.15,2013-08-31 07:20:00,
2013-08-31 00:40:00,57.8,55.5,30.10,SSW,204,0.0,0.0,92,0.00,,,0.00,0,Wunderground v.1.15,2013-08-31 07:40:00,
2013-08-31 00:50:00,57.6,55.6,30.10,SSW,204,0.0,0.0,93,0.00,,,0.00,0,Wunderground v.1.15,2013-08-31 07:50:00,
2013-08-31 01:05:00,57.3,55.3,30.11,SSW,204,0.0,0.0,93,0.00,,,0.00,0,Wunderground v.1.15,2013-08-31 08:05:00,
2013-08-31 01:10:00,57.3,55.3,30.11,SSW,204,0.0,0.0,93,0.00,,,0.00,0,Wunderground v.1.15,2013-08-31 08:10:00,
2013-08-31 01:20:00,57.1,55.1,30.10,SSW,204,0.0,0.0,93,0.00,,,0.00,0,Wunderground v.1.15,2013-08-31 08:20:00,
2013-08-31 01:30:00,56.9,54.9,30.10,SSW,204,0.0,0.0,93,0.00,,,0.00,0,Wunderground v.1.15,2013-08-31 08:30:00,
2013-08-31 01:40:00,56.7,54.7,30.10,SSW,204,0.0,0.0,93,0.00,,,0.00,0,Wunderground v.1.15,2013-08-31 08:40:00,
2013-08-31 01:50:00,56.6,54.6,30.10,SSW,204,0.0,0.0,93,0.00,,,0.00,0,Wunderground v.1.15,2013-08-31 08:50:00,
2013-08-31 02:05:00,56.4,54.7,30.09,SSW,204,0.0,0.0,94,0.00,,,0.00,0,Wunderground v.1.15,2013-08-31 09:05:00,
2013-08-31 02:10:00,56.3,54.6,30.09,SSW,204,0.0,0.0,94,0.00,,,0.00,0,Wunderground v.1.15,2013-08-31 09:10:00,
2013-08-31 02:20:00,56.1,54.4,30.09,SSW,204,0.0,0.0,94,0.00,,,0.00,0,Wunderground v.1.15,2013-08-31 09:20:00,
2013-08-31 02:30:00,56.0,54.3,30.09,SSW,204,0.0,0.0,94,0.00,,,0.00,0,Wunderground v.1.15,2013-08-31 09:30:00,
2013-08-31 02:40:00,55.8,54.1,30.09,SSW,204,0.0,0.0,94,0.00,,,0.00,0,Wunderground v.1.15,2013-08-31 09:40:00,
2013-08-31 02:50:00,55.6,53.9,30.09,SSW,204,0.0,0.0,94,0.00,,,0.00,0,Wunderground v.1.15,2013-08-31 09:50:00,
2013-08-31 03:05:00,55.5,53.8,30.08,SSW,204,0.0,0.0,94,0.00,,,0.00,0,Wunderground v.1.15,2013-08-31 10:05:00,
2013-08-31 03:10:00,55.4,53.7,30.08,SSW,204,0.0,0.0,94,0.00,,,0.00,0,Wunderground v.1.15,2013-08-31 10:10:00,
2013-08-31 03:15:00,55.3,53.6,30.08,SSW,204,0.0,0.0,94,0.00,,,0.00,0,Wunderground v.1.15,2013-08-31 10:15:00,
2013-08-31 03:30:00,54.9,53.2,30.08,SSW,204,0.0,0.0,94,0.00,,,0.00,0,Wunderground v.1.15,2013-08-31 10:30:00,
2013-08-31 03:40:00,54.8,53.1,30.08,SSW,204,0.0,0.0,94,0.00,,,0.00,0,Wunderground v.1.15,2013-08-31 10:40:00,
2013-08-31 03:50:00,54.6,52.9,30.08,SSW,204,0.0,0.0,94,0.00,,,0.00,0,Wunderground v.1.15,2013-08-31 10:50:00,
2013-08-31 04:05:00,54.5,53.1,30.08,SSW,204,0.0,0.0,95,0.00,,,0.00,0,Wunderground v.1.15,2013-08-31 11:05:00,
2013-08-31 04:10:00,54.6,53.2,30.08,SSW,204,0.0,0.0,95,0.00,,,0.00,0,Wunderground v.1.15,2013-08-31 11:10:00,
2013-08-31 04:20:00,54.4,53.0,30.08,SSW,204,0.0,0.0,95,0.00,,,0.00,0,Wunderground v.1.15,2013-08-31 11:20:00,
2013-08-31 04:25:00,54.3,52.9,30.08,SSW,204,0.0,0.0,95,0.00,,,0.00,0,Wunderground v.1.15,2013-08-31 11:25:00,
2013-08-31 04:40:00,54.0,52.6,30.08,SSW,204,0.0,0.0,95,0.00,,,0.00,0,Wunderground v.1.15,2013-08-31 11:40:00,
2013-08-31 04:50:00,53.9,52.5,30.08,SSW,204,0.0,0.0,95,0.00,,,0.00,0,Wunderground v.1.15,2013-08-31 11:50:00,
2013-08-31 05:05:00,53.8,52.4,30.07,SSW,204,0.0,0.0,95,0.00,,,0.00,0,Wunderground v.1.15,2013-08-31 12:05:00,
2013-08-31 05:10:00,53.9,52.5,30.07,SSW,204,0.0,0.0,95,0.00,,,0.00,0,Wunderground v.1.15,2013-08-31 12:10:00,
2013-08-31 05:20:00,54.0,52.6,30.07,SSW,204,0.0,0.0,95,0.00,,,0.00,0,Wunderground v.1.15,2013-08-31 12:20:00,
2013-08-31 05:30:00,53.7,52.3,30.07,SSW,204,0.0,0.0,95,0.00,,,0.00,0,Wunderground v.1.15,2013-08-31 12:30:00,
2013-08-31 05:40:00,53.7,52.3,30.07,SSW,204,0.0,0.0,95,0.00,,,0.00,0,Wunderground v.1.15,2013-08-31 12:40:00,
2013-08-31 05:50:00,53.5,52.1,30.07,SSW,204,0.0,0.0,95,0.00,,,0.00,0,Wunderground v.1.15,2013-08-31 12:50:00,
2013-08-31 06:05:00,53.2,51.8,30.07,SSW,204,0.0,0.0,95,0.00,,,0.00,0,Wunderground v.1.15,2013-08-31 13:05:00,
2013-08-31 06:10:00,53.3,51.9,30.07,SSW,204,0.0,0.0,95,0.00,,,0.00,0,Wunderground v.1.15,2013-08-31 13:10:00,
2013-08-31 06:20:00,53.3,51.9,30.07,SSW,204,0.0,0.0,95,0.00,,,0.00,0,Wunderground v.1.15,2013-08-31 13:20:00,
2013-08-31 06:30:00,53.2,51.8,30.07,SSW,204,0.0,0.0,95,0.00,,,0.00,5,Wunderground v.1.15,2013-08-31 13:30:00,
2013-08-31 06:35:00,53.2,51.8,30.07,SSW,204,0.0,0.0,95,0.00,,,0.00,5,Wunderground v.1.15,2013-08-31 13:35:00,
2013-08-31 06:45:00,53.2,52.1,30.07,SSW,204,0.0,0.0,96,0.00,,,0.00,11,Wunderground v.1.15,2013-08-31 13:45:00,
2013-08-31 06:55:00,53.1,51.7,30.07,SSW,204,0.0,0.0,95,0.00,,,0.00,14,Wunderground v.1.15,2013-08-31 13:55:00,
2013-08-31 07:05:00,53.0,51.6,30.06,SSW,204,0.0,0.0,95,0.00,,,0.00,18,Wunderground v.1.15,2013-08-31 14:05:00,
2013-08-31 07:10:00,53.1,52.0,30.06,SSW,203,0.0,0.0,96,0.00,,,0.00,30,Wunderground v.1.15,2013-08-31 14:10:00,
2013-08-31 07:15:00,53.3,52.2,30.06,SSW,204,0.0,0.0,96,0.00,,,0.00,30,Wunderground v.1.15,2013-08-31 14:15:00,
2013-08-31 07:30:00,53.5,52.4,30.06,SSW,204,0.0,0.0,96,0.00,,,0.00,35,Wunderground v.1.15,2013-08-31 14:30:00,
2013-08-31 07:40:00,53.9,52.8,30.06,SSW,204,0.0,0.0,96,0.00,,,0.00,39,Wunderground v.1.15,2013-08-31 14:40:00,
2013-08-31 07:50:00,54.1,53.0,30.06,SSW,204,0.0,0.0,96,0.00,,,0.00,32,Wunderground v.1.15,2013-08-31 14:50:00,
2013-08-31 08:05:00,54.8,53.7,30.06,SSW,204,0.0,0.0,96,0.00,,,0.00,186,Wunderground v.1.15,2013-08-31 15:05:00,
2013-08-31 08:15:00,56.2,54.8,30.06,SSW,204,0.0,0.0,95,0.00,,,0.00,213,Wunderground v.1.15,2013-08-31 15:15:00,
2013-08-31 08:30:00,56.8,54.8,30.05,SSW,204,0.0,0.0,93,0.00,,,0.00,255,Wunderground v.1.15,2013-08-31 15:30:00,
2013-08-31 08:40:00,57.8,55.2,30.05,SSW,204,0.0,1.0,91,0.00,,,0.00,281,Wunderground v.1.15,2013-08-31 15:40:00,
2013-08-31 08:50:00,58.6,55.7,30.05,NNW,331,1.0,1.0,90,0.00,,,0.00,308,Wunderground v.1.15,2013-08-31 15:50:00,
2013-08-31 09:05:00,59.7,56.8,30.04,NNW,343,1.0,1.0,90,0.00,,,0.00,338,Wunderground v.1.15,2013-08-31 16:05:00,
2013-08-31 09:20:00,61.2,57.3,30.04,NW,315,1.0,2.0,87,0.00,,,0.00,399,Wunderground v.1.15,2013-08-31 16:20:00,
2013-08-31 09:30:00,61.7,57.5,30.04,NW,322,2.0,2.0,86,0.00,,,0.00,425,Wunderground v.1.15,2013-08-31 16:30:00,
2013-08-31 09:40:00,61.9,56.7,30.04,NNW,331,2.0,2.0,83,0.00,,,0.00,455,Wunderground v.1.15,2013-08-31 16:40:00,
2013-08-31 09:45:00,62.3,57.1,30.03,WNW,283,2.0,2.0,83,0.00,,,0.00,469,Wunderground v.1.15,2013-08-31 16:45:00,
2013-08-31 10:05:00,64.5,58.2,30.03,NW,325,1.0,2.0,80,0.00,,,0.00,506,Wunderground v.1.15,2013-08-31 17:05:00,
2013-08-31 10:10:00,64.9,58.2,30.03,NNW,332,2.0,4.0,79,0.00,,,0.00,529,Wunderground v.1.15,2013-08-31 17:10:00,
2013-08-31 10:20:00,64.9,57.9,30.02,NNW,334,3.0,3.0,78,0.00,,,0.00,554,Wunderground v.1.15,2013-08-31 17:20:00,
2013-08-31 10:30:00,66.0,58.6,30.02,WSW,245,1.0,1.0,77,0.00,,,0.00,578,Wunderground v.1.15,2013-08-31 17:30:00,
2013-08-31 10:35:00,66.6,58.4,30.02,WSW,248,1.0,1.0,75,0.00,,,0.00,589,Wunderground v.1.15,2013-08-31 17:35:00,
2013-08-31 10:40:00,67.0,58.4,30.01,NNW,343,1.0,1.0,74,0.00,,,0.00,599,Wunderground v.1.15,2013-08-31 17:40:00,
2013-08-31 10:50:00,67.5,58.5,30.01,WNW,297,1.0,2.0,73,0.00,,,0.00,621,Wunderground v.1.15,2013-08-31 17:50:00,
2013-08-31 11:05:00,68.5,58.7,30.00,West,274,1.0,2.0,71,0.00,,,0.00,645,Wunderground v.1.15,2013-08-31 18:05:00,
2013-08-31 11:20:00,69.5,58.9,30.00,NNW,339,2.0,2.0,69,0.00,,,0.00,675,Wunderground v.1.15,2013-08-31 18:20:00,
2013-08-31 11:30:00,69.9,59.3,29.99,North,10,3.0,3.0,69,0.00,,,0.00,687,Wunderground v.1.15,2013-08-31 18:30:00,
2013-08-31 11:40:00,71.2,59.7,29.99,NW,311,3.0,3.0,67,0.00,,,0.00,700,Wunderground v.1.15,2013-08-31 18:40:00,
2013-08-31 11:50:00,70.7,59.2,29.98,NNW,341,3.0,4.0,67,0.00,,,0.00,722,Wunderground v.1.15,2013-08-31 18:50:00,
2013-08-31 12:05:00,71.5,59.5,29.98,WNW,300,3.0,3.0,66,0.00,,,0.00,745,Wunderground v.1.15,2013-08-31 19:05:00,
2013-08-31 12:10:00,71.8,59.8,29.98,West,281,2.0,6.0,66,0.00,,,0.00,745,Wunderground v.1.15,2013-08-31 19:10:00,
2013-08-31 12:20:00,72.2,59.3,29.97,WNW,296,3.0,5.0,64,0.00,,,0.00,744,Wunderground v.1.15,2013-08-31 19:20:00,
2013-08-31 12:30:00,72.9,59.6,29.97,NW,311,4.0,6.0,63,0.00,,,0.00,747,Wunderground v.1.15,2013-08-31 19:30:00,
2013-08-31 12:40:00,73.7,58.0,29.97,WNW,302,4.0,4.0,58,0.00,,,0.00,752,Wunderground v.1.15,2013-08-31 19:40:00,
2013-08-31 12:50:00,74.6,58.4,29.96,WSW,248,4.0,4.0,57,0.00,,,0.00,756,Wunderground v.1.15,2013-08-31 19:50:00,
2013-08-31 13:05:00,75.5,58.2,29.95,West,273,2.0,2.0,55,0.00,,,0.00,761,Wunderground v.1.15,2013-08-31 20:05:00,
2013-08-31 13:10:00,75.9,58.6,29.95,West,275,3.0,5.0,55,0.00,,,0.00,759,Wunderground v.1.15,2013-08-31 20:10:00,
2013-08-31 13:20:00,76.6,58.7,29.95,NNE,22,3.0,5.0,54,0.00,,,0.00,759,Wunderground v.1.15,2013-08-31 20:20:00,
2013-08-31 13:30:00,76.5,58.1,29.95,NW,311,3.0,3.0,53,0.00,,,0.00,758,Wunderground v.1.15,2013-08-31 20:30:00,
2013-08-31 13:40:00,77.3,58.3,29.94,NW,322,4.0,9.0,52,0.00,,,0.00,756,Wunderground v.1.15,2013-08-31 20:40:00,
2013-08-31 13:45:00,77.6,58.6,29.94,West,281,4.0,9.0,52,0.00,,,0.00,752,Wunderground v.1.15,2013-08-31 20:45:00,
2013-08-31 14:05:00,78.4,57.7,29.93,West,259,4.0,6.0,49,0.00,,,0.00,744,Wunderground v.1.15,2013-08-31 21:05:00,
2013-08-31 14:10:00,79.1,58.3,29.92,West,280,4.0,6.0,49,0.00,,,0.00,735,Wunderground v.1.15,2013-08-31 21:10:00,
2013-08-31 14:20:00,79.1,58.3,29.92,WNW,284,3.0,5.0,49,0.00,,,0.00,726,Wunderground v.1.15,2013-08-31 21:20:00,
2013-08-31 14:30:00,79.4,58.0,29.92,NW,304,5.0,7.0,48,0.00,,,0.00,717,Wunderground v.1.15,2013-08-31 21:30:00,
2013-08-31 14:40:00,79.4,58.6,29.91,NW,318,5.0,5.0,49,0.00,,,0.00,705,Wunderground v.1.15,2013-08-31 21:40:00,
2013-08-31 14:50:00,80.1,58.6,29.91,WNW,302,3.0,7.0,48,0.00,,,0.00,691,Wunderground v.1.15,2013-08-31 21:50:00,
2013-08-31 14:56:00,80.0,59.1,29.91,WNW,298,4.0,7.0,49,0.00,,,0.00,684,Wunderground v.1.15,2013-08-31 21:56:00,
2013-08-31 15:05:00,80.6,58.5,29.91,WNW,284,5.0,5.0,47,0.00,,,0.00,675,Wunderground v.1.15,2013-08-31 22:05:00,
2013-08-31 15:10:00,80.6,58.5,29.90,WNW,296,4.0,8.0,47,0.00,,,0.00,661,Wunderground v.1.15,2013-08-31 22:10:00,
2013-08-31 15:15:00,80.6,58.5,29.90,WNW,292,4.0,4.0,47,0.00,,,0.00,652,Wunderground v.1.15,2013-08-31 22:15:00,
2013-08-31 15:20:00,80.9,58.8,29.90,WNW,298,4.0,4.0,47,0.00,,,0.00,643,Wunderground v.1.15,2013-08-31 22:20:00,
2013-08-31 15:30:00,81.2,59.1,29.90,NW,318,4.0,4.0,47,0.00,,,0.00,626,Wunderground v.1.15,2013-08-31 22:30:00,
2013-08-31 15:35:00,81.3,59.1,29.89,WNW,282,4.0,9.0,47,0.00,,,0.00,619,Wunderground v.1.15,2013-08-31 22:35:00,
2013-08-31 15:50:00,80.9,59.9,29.89,WNW,290,6.0,6.0,49,0.00,,,0.00,589,Wunderground v.1.15,2013-08-31 22:50:00,
2013-08-31 16:05:00,81.4,59.8,29.88,West,271,4.0,4.0,48,0.00,,,0.00,563,Wunderground v.1.15,2013-08-31 23:05:00,
2013-08-31 16:10:00,81.2,59.6,29.88,WNW,295,5.0,5.0,48,0.00,,,0.00,543,Wunderground v.1.15,2013-08-31 23:10:00,
2013-08-31 16:20:00,81.8,59.6,29.88,West,275,4.0,5.0,47,0.00,,,0.00,519,Wunderground v.1.15,2013-08-31 23:20:00,
2013-08-31 16:30:00,81.6,59.4,29.88,West,275,4.0,8.0,47,0.00,,,0.00,494,Wunderground v.1.15,2013-08-31 23:30:00,
2013-08-31 16:40:00,81.8,59.0,29.87,NNW,348,4.0,4.0,46,0.00,,,0.00,469,Wunderground v.1.15,2013-08-31 23:40:00,
2013-08-31 16:50:00,81.7,58.9,29.87,NW,314,4.0,4.0,46,0.00,,,0.00,443,Wunderground v.1.15,2013-08-31 23:50:00,
2013-08-31 17:05:00,81.9,59.1,29.87,WNW,291,3.0,3.0,46,0.00,,,0.00,399,Wunderground v.1.15,2013-09-01 00:05:00,
2013-08-31 17:20:00,81.6,60.0,29.86,WNW,297,4.0,7.0,48,0.00,,,0.00,360,Wunderground v.1.15,2013-09-01 00:20:00,
2013-08-31 17:30:00,81.0,59.5,29.86,North,5,4.0,5.0,48,0.00,,,0.00,334,Wunderground v.1.15,2013-09-01 00:30:00,
2013-08-31 17:40:00,81.1,59.6,29.86,North,355,4.0,5.0,48,0.00,,,0.00,304,Wunderground v.1.15,2013-09-01 00:40:00,
2013-08-31 17:50:00,81.0,60.6,29.86,NNW,339,4.0,6.0,50,0.00,,,0.00,276,Wunderground v.1.15,2013-09-01 00:50:00,
2013-08-31 18:05:00,80.9,59.4,29.86,NW,304,4.0,5.0,48,0.00,,,0.00,234,Wunderground v.1.15,2013-09-01 01:05:00,
2013-08-31 18:20:00,81.1,59.6,29.86,NNW,338,2.0,2.0,48,0.00,,,0.00,183,Wunderground v.1.15,2013-09-01 01:20:00,
2013-08-31 18:30:00,80.8,59.9,29.86,NW,326,2.0,2.0,49,0.00,,,0.00,148,Wunderground v.1.15,2013-09-01 01:30:00,
2013-08-31 18:40:00,80.8,60.4,29.86,NW,320,2.0,2.0,50,0.00,,,0.00,118,Wunderground v.1.15,2013-09-01 01:40:00,
2013-08-31 18:45:00,80.7,60.3,29.86,NW,321,2.0,2.0,50,0.00,,,0.00,107,Wunderground v.1.15,2013-09-01 01:45:00,
2013-08-31 19:10:00,79.2,62.7,29.85,NW,321,0.0,1.0,57,0.00,,,0.00,40,Wunderground v.1.15,2013-09-01 02:10:00,
2013-08-31 19:20:00,77.5,62.0,29.85,NW,321,0.0,0.0,59,0.00,,,0.00,16,Wunderground v.1.15,2013-09-01 02:20:00,
2013-08-31 19:30:00,75.9,62.4,29.85,NW,321,0.0,0.0,63,0.00,,,0.00,12,Wunderground v.1.15,2013-09-01 02:30:00,
2013-08-31 19:40:00,74.5,61.5,29.85,WSW,238,0.0,1.0,64,0.00,,,0.00,9,Wunderground v.1.15,2013-09-01 02:40:00,
2013-08-31 19:50:00,73.7,62.5,29.85,WSW,238,1.0,1.0,68,0.00,,,0.00,0,Wunderground v.1.15,2013-09-01 02:50:00,
2013-08-31 20:10:00,71.5,62.0,29.86,WSW,238,0.0,0.0,72,0.00,,,0.00,0,Wunderground v.1.15,2013-09-01 03:10:00,
2013-08-31 20:20:00,70.8,62.1,29.86,WSW,238,0.0,2.0,74,0.00,,,0.00,0,Wunderground v.1.15,2013-09-01 03:20:00,
2013-08-31 20:25:00,70.3,61.6,29.86,WSW,238,0.0,2.0,74,0.00,,,0.00,0,Wunderground v.1.15,2013-09-01 03:25:00,
2013-08-31 20:40:00,68.8,61.3,29.86,WSW,238,0.0,0.0,77,0.00,,,0.00,0,Wunderground v.1.15,2013-09-01 03:40:00,
2013-08-31 20:50:00,68.3,61.2,29.86,WSW,238,0.0,0.0,78,0.00,,,0.00,0,Wunderground v.1.15,2013-09-01 03:50:00,
2013-08-31 21:05:00,67.8,61.4,29.86,WSW,238,0.0,0.0,80,0.00,,,0.00,0,Wunderground v.1.15,2013-09-01 04:05:00,
2013-08-31 21:10:00,67.8,61.4,29.87,WSW,238,0.0,1.0,80,0.00,,,0.00,0,Wunderground v.1.15,2013-09-01 04:10:00,
2013-08-31 21:20:00,67.7,61.7,29.87,WSW,238,0.0,0.0,81,0.00,,,0.00,0,Wunderground v.1.15,2013-09-01 04:20:00,
2013-08-31 21:30:00,67.3,61.3,29.87,WSW,238,0.0,0.0,81,0.00,,,0.00,0,Wunderground v.1.15,2013-09-01 04:30:00,
2013-08-31 21:35:00,67.0,61.3,29.87,WSW,237,0.0,0.0,82,0.00,,,0.00,0,Wunderground v.1.15,2013-09-01 04:35:00,
2013-08-31 21:40:00,66.8,61.1,29.86,WSW,238,0.0,0.0,82,0.00,,,0.00,0,Wunderground v.1.15,2013-09-01 04:40:00,
2013-08-31 21:45:00,66.5,60.8,29.87,WSW,238,0.0,0.0,82,0.00,,,0.00,0,Wunderground v.1.15,2013-09-01 04:45:00,
2013-08-31 22:05:00,66.0,61.0,29.86,WSW,238,0.0,0.0,84,0.00,,,0.00,0,Wunderground v.1.15,2013-09-01 05:05:00,
2013-08-31 22:10:00,65.8,60.8,29.86,WSW,238,0.0,0.0,84,0.00,,,0.00,0,Wunderground v.1.15,2013-09-01 05:10:00,
2013-08-31 22:20:00,65.5,60.5,29.86,WSW,238,0.0,0.0,84,0.00,,,0.00,0,Wunderground v.1.15,2013-09-01 05:20:00,
2013-08-31 22:30:00,65.0,60.7,29.87,WSW,238,0.0,1.0,86,0.00,,,0.00,0,Wunderground v.1.15,2013-09-01 05:30:00,
2013-08-31 22:40:00,64.7,60.7,29.87,WSW,238,0.0,0.0,87,0.00,,,0.00,0,Wunderground v.1.15,2013-09-01 05:40:00,
2013-08-31 22:50:00,64.5,60.9,29.87,WSW,238,0.0,0.0,88,0.00,,,0.00,0,Wunderground v.1.15,2013-09-01 05:50:00,
2013-08-31 23:05:00,64.2,60.6,29.87,WSW,238,1.0,1.0,88,0.00,,,0.00,0,Wunderground v.1.15,2013-09-01 06:05:00,
2013-08-31 23:10:00,64.1,60.5,29.87,WSW,238,0.0,1.0,88,0.00,,,0.00,0,Wunderground v.1.15,2013-09-01 06:10:00,
2013-08-31 23:20:00,63.8,60.5,29.87,WSW,238,0.0,0.0,89,0.00,,,0.00,0,Wunderground v.1.15,2013-09-01 06:20:00,
2013-08-31 23:30:00,63.4,60.1,29.86,WSW,238,0.0,0.0,89,0.00,,,0.00,0,Wunderground v.1.15,2013-09-01 06:30:00,
2013-08-31 23:40:00,63.0,59.7,29.86,WSW,238,0.0,0.0,89,0.00,,,0.00,0,Wunderground v.1.15,2013-09-01 06:40:00,
2013-08-31 23:50:00,62.8,59.8,29.86,WSW,238,0.0,0.0,90,0.00,,,0.00,0,Wunderground v.1.15,2013-09-01 06:50:00,